<?xml version="1.0" encoding="utf-8"?>
<gpx xmlns:xsi="http://www.w3.org/2001/XMLSchema-instance" xmlns:xsd="http://www.w3.org/2001/XMLSchema" version="1.1" creator="Shapelink.com" xmlns="http://www.topografix.com/GPX/1/1" xmlns:gpxtpx="http://www.garmin.com/xmlschemas/TrackPointExtension/v1">
  <metadata>
    <name>Övrigt 3.10 km, 2019-05-05</name>
    <desc></desc>
    <author><name>Marian Moron</name></author> 
    <time>2019-05-05T11:14:34Z</time>
  </metadata>
  <trk>
    <name>Övrigt 3.10 km, 2019-05-05</name>
    <trkseg>
      <trkpt lat="51.208260669382" lon="4.405534602805">
        <ele>0</ele>
        <time>2019-05-05T11:14:34Z</time>
      </trkpt>
      <trkpt lat="51.208406179166" lon="4.405731912731">
        <ele>0</ele>
        <time>2019-05-05T11:15:00Z</time>
      </trkpt>
      <trkpt lat="51.208685296436" lon="4.406315209152">
        <ele>0</ele>
        <time>2019-05-05T11:15:40Z</time>
      </trkpt>
      <trkpt lat="51.208742460994" lon="4.406370445873">
        <ele>0</ele>
        <time>2019-05-05T11:15:50Z</time>
      </trkpt>
      <trkpt lat="51.208841618871" lon="4.406302049569">
        <ele>0.4</ele>
        <time>2019-05-05T11:16:00Z</time>
      </trkpt>
      <trkpt lat="51.20885930468" lon="4.406249746513">
        <ele>2</ele>
        <time>2019-05-05T11:16:03Z</time>
      </trkpt>
      <trkpt lat="51.208973047063" lon="4.406043551773">
        <ele>1.6</ele>
        <time>2019-05-05T11:16:22Z</time>
      </trkpt>
      <trkpt lat="51.209034402571" lon="4.405990326708">
        <ele>0.2</ele>
        <time>2019-05-05T11:16:29Z</time>
      </trkpt>
      <trkpt lat="51.209476380158" lon="4.405739037346">
        <ele>0</ele>
        <time>2019-05-05T11:16:56Z</time>
      </trkpt>
      <trkpt lat="51.209495155614" lon="4.405737947699">
        <ele>0</ele>
        <time>2019-05-05T11:16:57Z</time>
      </trkpt>
      <trkpt lat="51.20960110283" lon="4.405773654593">
        <ele>0</ele>
        <time>2019-05-05T11:17:07Z</time>
      </trkpt>
      <trkpt lat="51.209649969307" lon="4.405761668476">
        <ele>0</ele>
        <time>2019-05-05T11:17:12Z</time>
      </trkpt>
      <trkpt lat="51.20967151079" lon="4.405762506666">
        <ele>0</ele>
        <time>2019-05-05T11:17:14Z</time>
      </trkpt>
      <trkpt lat="51.209845351396" lon="4.406131645542">
        <ele>0</ele>
        <time>2019-05-05T11:17:37Z</time>
      </trkpt>
      <trkpt lat="51.209982060185" lon="4.406467005361">
        <ele>0</ele>
        <time>2019-05-05T11:17:56Z</time>
      </trkpt>
      <trkpt lat="51.210038218915" lon="4.406666494581">
        <ele>0</ele>
        <time>2019-05-05T11:18:06Z</time>
      </trkpt>
      <trkpt lat="51.210259333437" lon="4.40697754689">
        <ele>0</ele>
        <time>2019-05-05T11:18:27Z</time>
      </trkpt>
      <trkpt lat="51.210595447627" lon="4.407443412892">
        <ele>0</ele>
        <time>2019-05-05T11:18:57Z</time>
      </trkpt>
      <trkpt lat="51.210699467006" lon="4.407546761719">
        <ele>0</ele>
        <time>2019-05-05T11:19:06Z</time>
      </trkpt>
      <trkpt lat="51.210998281741" lon="4.407483897469">
        <ele>16.2</ele>
        <time>2019-05-05T11:19:31Z</time>
      </trkpt>
      <trkpt lat="51.211366163332" lon="4.407830153758">
        <ele>21</ele>
        <time>2019-05-05T11:20:09Z</time>
      </trkpt>
      <trkpt lat="51.211508907089" lon="4.40774365255">
        <ele>21.6</ele>
        <time>2019-05-05T11:20:22Z</time>
      </trkpt>
      <trkpt lat="51.211622565653" lon="4.407684727793">
        <ele>25.4</ele>
        <time>2019-05-05T11:20:35Z</time>
      </trkpt>
      <trkpt lat="51.211578812135" lon="4.407898969157">
        <ele>31.4</ele>
        <time>2019-05-05T11:21:47Z</time>
      </trkpt>
      <trkpt lat="51.211578225402" lon="4.407796877615">
        <ele>32</ele>
        <time>2019-05-05T11:21:58Z</time>
      </trkpt>
      <trkpt lat="51.211463393372" lon="4.407885222841">
        <ele>31</ele>
        <time>2019-05-05T11:22:13Z</time>
      </trkpt>
      <trkpt lat="51.211503039759" lon="4.407827220093">
        <ele>21</ele>
        <time>2019-05-05T11:22:21Z</time>
      </trkpt>
      <trkpt lat="51.211604293111" lon="4.40800097688">
        <ele>2</ele>
        <time>2019-05-05T11:22:35Z</time>
      </trkpt>
      <trkpt lat="51.211671264492" lon="4.408072055392">
        <ele>0</ele>
        <time>2019-05-05T11:22:41Z</time>
      </trkpt>
      <trkpt lat="51.21189690524" lon="4.408373468516">
        <ele>0</ele>
        <time>2019-05-05T11:23:03Z</time>
      </trkpt>
      <trkpt lat="51.211951890504" lon="4.408439182612">
        <ele>0</ele>
        <time>2019-05-05T11:23:09Z</time>
      </trkpt>
      <trkpt lat="51.212214076336" lon="4.408663566075">
        <ele>6.8</ele>
        <time>2019-05-05T11:24:09Z</time>
      </trkpt>
      <trkpt lat="51.212385234734" lon="4.407970550583">
        <ele>8.4</ele>
        <time>2019-05-05T11:24:37Z</time>
      </trkpt>
      <trkpt lat="51.212430329356" lon="4.407537541629">
        <ele>10.8</ele>
        <time>2019-05-05T11:24:55Z</time>
      </trkpt>
      <trkpt lat="51.212476597444" lon="4.407421200857">
        <ele>10.8</ele>
        <time>2019-05-05T11:25:02Z</time>
      </trkpt>
      <trkpt lat="51.212694191568" lon="4.407443664349">
        <ele>14.2</ele>
        <time>2019-05-05T11:25:29Z</time>
      </trkpt>
      <trkpt lat="51.213144215779" lon="4.407326485387">
        <ele>16.6</ele>
        <time>2019-05-05T11:26:02Z</time>
      </trkpt>
      <trkpt lat="51.213585606633" lon="4.40709154073">
        <ele>6.6</ele>
        <time>2019-05-05T11:26:30Z</time>
      </trkpt>
      <trkpt lat="51.213650063444" lon="4.407066059754">
        <ele>3.2</ele>
        <time>2019-05-05T11:26:36Z</time>
      </trkpt>
      <trkpt lat="51.213619972423" lon="4.407273260322">
        <ele>5</ele>
        <time>2019-05-05T11:26:47Z</time>
      </trkpt>
      <trkpt lat="51.213714017341" lon="4.407701156317">
        <ele>0.8</ele>
        <time>2019-05-05T11:26:59Z</time>
      </trkpt>
      <trkpt lat="51.213869836862" lon="4.408127208294">
        <ele>5.4</ele>
        <time>2019-05-05T11:27:17Z</time>
      </trkpt>
      <trkpt lat="51.213914847665" lon="4.408856014499">
        <ele>5.6</ele>
        <time>2019-05-05T11:27:45Z</time>
      </trkpt>
      <trkpt lat="51.21400495309" lon="4.409078721582">
        <ele>0</ele>
        <time>2019-05-05T11:27:59Z</time>
      </trkpt>
      <trkpt lat="51.214233946598" lon="4.409270667092">
        <ele>0</ele>
        <time>2019-05-05T11:28:19Z</time>
      </trkpt>
      <trkpt lat="51.214275353184" lon="4.409340907414">
        <ele>0</ele>
        <time>2019-05-05T11:28:30Z</time>
      </trkpt>
      <trkpt lat="51.214273844442" lon="4.409348115848">
        <ele>0.4</ele>
        <time>2019-05-05T11:28:36Z</time>
      </trkpt>
      <trkpt lat="51.214366715894" lon="4.40942925264">
        <ele>1.6</ele>
        <time>2019-05-05T11:28:57Z</time>
      </trkpt>
      <trkpt lat="51.214449109971" lon="4.409619940865">
        <ele>13.6</ele>
        <time>2019-05-05T11:30:16Z</time>
      </trkpt>
      <trkpt lat="51.214392113051" lon="4.409389606253">
        <ele>11.6</ele>
        <time>2019-05-05T11:30:42Z</time>
      </trkpt>
      <trkpt lat="51.214453887654" lon="4.409392120823">
        <ele>11</ele>
        <time>2019-05-05T11:30:53Z</time>
      </trkpt>
      <trkpt lat="51.214591183176" lon="4.409370327883">
        <ele>11.8</ele>
        <time>2019-05-05T11:31:32Z</time>
      </trkpt>
      <trkpt lat="51.214555811558" lon="4.409476275099">
        <ele>12.6</ele>
        <time>2019-05-05T11:31:41Z</time>
      </trkpt>
      <trkpt lat="51.214556230653" lon="4.409676686328">
        <ele>15</ele>
        <time>2019-05-05T11:32:12Z</time>
      </trkpt>
      <trkpt lat="51.214521697225" lon="4.410094104948">
        <ele>15</ele>
        <time>2019-05-05T11:32:54Z</time>
      </trkpt>
      <trkpt lat="51.214501915941" lon="4.409386588769">
        <ele>6.4</ele>
        <time>2019-05-05T11:33:36Z</time>
      </trkpt>
      <trkpt lat="51.214609874813" lon="4.409441071119">
        <ele>10.4</ele>
        <time>2019-05-05T11:34:12Z</time>
      </trkpt>
      <trkpt lat="51.214632170667" lon="4.409695126508">
        <ele>16.6</ele>
        <time>2019-05-05T11:34:35Z</time>
      </trkpt>
      <trkpt lat="51.214679779859" lon="4.409651792085">
        <ele>12.2</ele>
        <time>2019-05-05T11:34:47Z</time>
      </trkpt>
      <trkpt lat="51.21459503885" lon="4.409339398672">
        <ele>3.2</ele>
        <time>2019-05-05T11:35:47Z</time>
      </trkpt>
      <trkpt lat="51.214599062162" lon="4.40938566676">
        <ele>3.6</ele>
        <time>2019-05-05T11:35:50Z</time>
      </trkpt>
      <trkpt lat="51.214649688838" lon="4.409745837003">
        <ele>13</ele>
        <time>2019-05-05T11:36:25Z</time>
      </trkpt>
      <trkpt lat="51.214475680594" lon="4.409233199999">
        <ele>10.2</ele>
        <time>2019-05-05T11:37:17Z</time>
      </trkpt>
      <trkpt lat="51.214619262541" lon="4.409479711678">
        <ele>16.8</ele>
        <time>2019-05-05T11:38:10Z</time>
      </trkpt>
      <trkpt lat="51.214579029421" lon="4.409616252829">
        <ele>24.2</ele>
        <time>2019-05-05T11:38:31Z</time>
      </trkpt>
      <trkpt lat="51.21458581876" lon="4.409558082443">
        <ele>15</ele>
        <time>2019-05-05T11:39:32Z</time>
      </trkpt>
      <trkpt lat="51.214483643399" lon="4.409646511488">
        <ele>13</ele>
        <time>2019-05-05T11:39:51Z</time>
      </trkpt>
      <trkpt lat="51.21458665695" lon="4.40930268595">
        <ele>11.4</ele>
        <time>2019-05-05T11:40:31Z</time>
      </trkpt>
      <trkpt lat="51.214567797675" lon="4.409390863538">
        <ele>14.2</ele>
        <time>2019-05-05T11:41:36Z</time>
      </trkpt>
      <trkpt lat="51.214591266995" lon="4.409549868181">
        <ele>14.4</ele>
        <time>2019-05-05T11:41:48Z</time>
      </trkpt>
      <trkpt lat="51.21458581876" lon="4.409616001372">
        <ele>14.2</ele>
        <time>2019-05-05T11:41:52Z</time>
      </trkpt>
      <trkpt lat="51.214597888696" lon="4.409584904523">
        <ele>14.8</ele>
        <time>2019-05-05T11:41:55Z</time>
      </trkpt>
      <trkpt lat="51.214559583413" lon="4.409295896611">
        <ele>8.6</ele>
        <time>2019-05-05T11:42:40Z</time>
      </trkpt>
      <trkpt lat="51.214559918689" lon="4.409290783652">
        <ele>10.2</ele>
        <time>2019-05-05T11:42:46Z</time>
      </trkpt>
      <trkpt lat="51.214585148208" lon="4.409407292062">
        <ele>10.6</ele>
        <time>2019-05-05T11:42:59Z</time>
      </trkpt>
      <trkpt lat="51.214597134325" lon="4.409540899548">
        <ele>11.6</ele>
        <time>2019-05-05T11:43:08Z</time>
      </trkpt>
      <trkpt lat="51.214584477656" lon="4.409659838709">
        <ele>12</ele>
        <time>2019-05-05T11:43:24Z</time>
      </trkpt>
      <trkpt lat="51.214645162612" lon="4.409757320206">
        <ele>11.6</ele>
        <time>2019-05-05T11:43:33Z</time>
      </trkpt>
      <trkpt lat="51.214671565597" lon="4.409848180002">
        <ele>11</ele>
        <time>2019-05-05T11:43:40Z</time>
      </trkpt>
      <trkpt lat="51.214714732382" lon="4.410197286137">
        <ele>6.4</ele>
        <time>2019-05-05T11:44:00Z</time>
      </trkpt>
      <trkpt lat="51.214735687132" lon="4.410233412126">
        <ele>4.6</ele>
        <time>2019-05-05T11:44:06Z</time>
      </trkpt>
      <trkpt lat="51.214744404308" lon="4.410272974694">
        <ele>4.8</ele>
        <time>2019-05-05T11:44:37Z</time>
      </trkpt>
      <trkpt lat="51.214696292202" lon="4.410310525606">
        <ele>2.2</ele>
        <time>2019-05-05T11:46:46Z</time>
      </trkpt>
      <trkpt lat="51.214652538684" lon="4.410309855054">
        <ele>2.2</ele>
        <time>2019-05-05T11:46:51Z</time>
      </trkpt>
      <trkpt lat="51.214671230321" lon="4.409828147261">
        <ele>8.2</ele>
        <time>2019-05-05T11:47:14Z</time>
      </trkpt>
      <trkpt lat="51.214645078793" lon="4.409720858941">
        <ele>13.4</ele>
        <time>2019-05-05T11:47:23Z</time>
      </trkpt>
      <trkpt lat="51.214610377727" lon="4.409688588626">
        <ele>13.6</ele>
        <time>2019-05-05T11:47:27Z</time>
      </trkpt>
      <trkpt lat="51.214451037808" lon="4.409393126651">
        <ele>10.6</ele>
        <time>2019-05-05T11:47:56Z</time>
      </trkpt>
      <trkpt lat="51.214461263726" lon="4.409373010091">
        <ele>12</ele>
        <time>2019-05-05T11:47:59Z</time>
      </trkpt>
      <trkpt lat="51.214466963418" lon="4.409367394218">
        <ele>11.6</ele>
        <time>2019-05-05T11:48:06Z</time>
      </trkpt>
      <trkpt lat="51.214401919874" lon="4.409349373133">
        <ele>9.4</ele>
        <time>2019-05-05T11:48:34Z</time>
      </trkpt>
      <trkpt lat="51.214544412174" lon="4.409359766689">
        <ele>9.4</ele>
        <time>2019-05-05T11:49:11Z</time>
      </trkpt>
      <trkpt lat="51.214583555647" lon="4.409380972896">
        <ele>9.6</ele>
        <time>2019-05-05T11:49:15Z</time>
      </trkpt>
      <trkpt lat="51.214590764081" lon="4.409440484386">
        <ele>9</ele>
        <time>2019-05-05T11:49:19Z</time>
      </trkpt>
      <trkpt lat="51.214545418002" lon="4.40948122042">
        <ele>7.2</ele>
        <time>2019-05-05T11:49:25Z</time>
      </trkpt>
      <trkpt lat="51.214493366403" lon="4.409446938449">
        <ele>11.6</ele>
        <time>2019-05-05T11:49:49Z</time>
      </trkpt>
      <trkpt lat="51.214549860409" lon="4.409417685618">
        <ele>24.8</ele>
        <time>2019-05-05T11:50:28Z</time>
      </trkpt>
      <trkpt lat="51.214522200139" lon="4.409330765315">
        <ele>26.2</ele>
        <time>2019-05-05T11:50:39Z</time>
      </trkpt>
      <trkpt lat="51.214505184882" lon="4.409334788627">
        <ele>24.2</ele>
        <time>2019-05-05T11:50:50Z</time>
      </trkpt>
      <trkpt lat="51.214507196538" lon="4.409388348968">
        <ele>21.4</ele>
        <time>2019-05-05T11:51:56Z</time>
      </trkpt>
      <trkpt lat="51.214476518784" lon="4.40937644667">
        <ele>22.4</ele>
        <time>2019-05-05T11:56:37Z</time>
      </trkpt>
      <trkpt lat="51.214463191563" lon="4.409402933474">
        <ele>12.6</ele>
        <time>2019-05-05T11:57:27Z</time>
      </trkpt>
      <trkpt lat="51.214465203219" lon="4.409412656478">
        <ele>11.2</ele>
        <time>2019-05-05T11:59:19Z</time>
      </trkpt>
      <trkpt lat="51.2144232099" lon="4.40938566676">
        <ele>13.6</ele>
        <time>2019-05-05T12:00:41Z</time>
      </trkpt>
      <trkpt lat="51.21444751741" lon="4.409381643448">
        <ele>13</ele>
        <time>2019-05-05T12:01:27Z</time>
      </trkpt>
      <trkpt lat="51.214169070692" lon="4.409313750058">
        <ele>9.2</ele>
        <time>2019-05-05T12:02:47Z</time>
      </trkpt>
      <trkpt lat="51.213931695284" lon="4.408805136366">
        <ele>6.4</ele>
        <time>2019-05-05T12:03:25Z</time>
      </trkpt>
      <trkpt lat="51.213933539302" lon="4.408361230942">
        <ele>26.4</ele>
        <time>2019-05-05T12:03:45Z</time>
      </trkpt>
      <trkpt lat="51.213832956502" lon="4.407671065296">
        <ele>17.2</ele>
        <time>2019-05-05T12:04:21Z</time>
      </trkpt>
      <trkpt lat="51.213730278227" lon="4.407344338834">
        <ele>3</ele>
        <time>2019-05-05T12:04:46Z</time>
      </trkpt>
      <trkpt lat="51.213669928547" lon="4.407292287235">
        <ele>6</ele>
        <time>2019-05-05T12:04:48Z</time>
      </trkpt>
      <trkpt lat="51.213207080029" lon="4.407165720545">
        <ele>4.8</ele>
        <time>2019-05-05T12:05:25Z</time>
      </trkpt>
      <trkpt lat="51.212752781049" lon="4.407360851177">
        <ele>15.8</ele>
        <time>2019-05-05T12:05:58Z</time>
      </trkpt>
      <trkpt lat="51.212593022035" lon="4.407501248002">
        <ele>8.4</ele>
        <time>2019-05-05T12:06:18Z</time>
      </trkpt>
      <trkpt lat="51.212230253403" lon="4.407319779867">
        <ele>8.2</ele>
        <time>2019-05-05T12:06:48Z</time>
      </trkpt>
      <trkpt lat="51.211796154802" lon="4.407541900217">
        <ele>14</ele>
        <time>2019-05-05T12:07:18Z</time>
      </trkpt>
      <trkpt lat="51.211355350681" lon="4.40767995011">
        <ele>12.4</ele>
        <time>2019-05-05T12:07:47Z</time>
      </trkpt>
      <trkpt lat="51.211103809862" lon="4.407656564609">
        <ele>24.6</ele>
        <time>2019-05-05T12:08:13Z</time>
      </trkpt>
      <trkpt lat="51.21111403578" lon="4.407563693157">
        <ele>19.6</ele>
        <time>2019-05-05T12:09:32Z</time>
      </trkpt>
      <trkpt lat="51.211107749355" lon="4.407571069229">
        <ele>19.6</ele>
        <time>2019-05-05T12:09:34Z</time>
      </trkpt>
      <trkpt lat="51.210952013653" lon="4.407670562382">
        <ele>16.6</ele>
        <time>2019-05-05T12:09:49Z</time>
      </trkpt>
      <trkpt lat="51.210882360064" lon="4.407703922344">
        <ele>17.2</ele>
        <time>2019-05-05T12:09:53Z</time>
      </trkpt>
      <trkpt lat="51.210614306902" lon="4.407574505808">
        <ele>5.2</ele>
        <time>2019-05-05T12:10:16Z</time>
      </trkpt>
      <trkpt lat="51.210381038625" lon="4.40705885132">
        <ele>11.6</ele>
        <time>2019-05-05T12:10:46Z</time>
      </trkpt>
      <trkpt lat="51.210038218915" lon="4.406590973662">
        <ele>14.8</ele>
        <time>2019-05-05T12:11:14Z</time>
      </trkpt>
      <trkpt lat="51.210009133722" lon="4.406469855207">
        <ele>15.2</ele>
        <time>2019-05-05T12:11:21Z</time>
      </trkpt>
      <trkpt lat="51.210003769306" lon="4.406402213274">
        <ele>16</ele>
        <time>2019-05-05T12:11:24Z</time>
      </trkpt>
      <trkpt lat="51.209827162673" lon="4.406127957506">
        <ele>8.8</ele>
        <time>2019-05-05T12:11:40Z</time>
      </trkpt>
      <trkpt lat="51.209778547653" lon="4.406020669186">
        <ele>9.6</ele>
        <time>2019-05-05T12:11:47Z</time>
      </trkpt>
      <trkpt lat="51.209686849667" lon="4.405664438436">
        <ele>15</ele>
        <time>2019-05-05T12:12:07Z</time>
      </trkpt>
      <trkpt lat="51.209649634031" lon="4.405668629386">
        <ele>13.2</ele>
        <time>2019-05-05T12:12:09Z</time>
      </trkpt>
      <trkpt lat="51.209552068715" lon="4.405699055683">
        <ele>10.4</ele>
        <time>2019-05-05T12:12:18Z</time>
      </trkpt>
      <trkpt lat="51.209402367981" lon="4.405747251608">
        <ele>9.4</ele>
        <time>2019-05-05T12:12:29Z</time>
      </trkpt>
      <trkpt lat="51.209241351682" lon="4.405966019198">
        <ele>15.8</ele>
        <time>2019-05-05T12:12:46Z</time>
      </trkpt>
      <trkpt lat="51.209159879614" lon="4.406029386362">
        <ele>18.6</ele>
        <time>2019-05-05T12:13:03Z</time>
      </trkpt>
      <trkpt lat="51.209128782765" lon="4.406040366651">
        <ele>16.4</ele>
        <time>2019-05-05T12:13:05Z</time>
      </trkpt>
      <trkpt lat="51.208838014654" lon="4.40623239598">
        <ele>9.6</ele>
        <time>2019-05-05T12:13:27Z</time>
      </trkpt>
      <trkpt lat="51.208724859004" lon="4.406345803087">
        <ele>4.6</ele>
        <time>2019-05-05T12:13:38Z</time>
      </trkpt>
      <trkpt lat="51.208677585088" lon="4.406358878851">
        <ele>9.6</ele>
        <time>2019-05-05T12:13:52Z</time>
      </trkpt>
      <trkpt lat="51.208590748604" lon="4.406290482547">
        <ele>8.4</ele>
        <time>2019-05-05T12:14:00Z</time>
      </trkpt>
      <trkpt lat="51.208283300512" lon="4.405755884965">
        <ele>4.6</ele>
        <time>2019-05-05T12:14:34Z</time>
      </trkpt>
      <trkpt lat="51.208168049387" lon="4.405580870893">
        <ele>2.6</ele>
        <time>2019-05-05T12:15:20Z</time>
      </trkpt>
      <trkpt lat="51.208187998309" lon="4.405589001336">
        <ele>4</ele>
        <time>2019-05-05T12:15:25Z</time>
      </trkpt>
      <trkpt lat="51.208192021621" lon="4.405588079327">
        <ele>4.4</ele>
        <time>2019-05-05T12:15:26Z</time>
      </trkpt>
    </trkseg>
  </trk>
</gpx>